sensor_id;sensor_type;location;lat;lon;timestamp;P1;durP1;ratioP1;P2;durP2;ratioP2
12314;SDS011;23886;46.614;14.276;2023-02-19T00:00:10;36.80;;;24.63;;
12314;SDS011;23886;46.614;14.276;2023-02-19T00:02:41;39.40;;;26.73;;
12314;SDS011;23886;46.614;14.276;2023-02-19T00:05:10;43.40;;;27.60;;
12314;SDS011;23886;46.614;14.276;2023-02-19T00:07:37;43.57;;;28.33;;
12314;SDS011;23886;46.614;14.276;2023-02-19T00:10:04;44.40;;;28.53;;
12314;SDS011;23886;46.614;14.276;2023-02-19T00:12:31;39.17;;;25.63;;
12314;SDS011;23886;46.614;14.276;2023-02-19T00:14:58;43.07;;;26.63;;
12314;SDS011;23886;46.614;14.276;2023-02-19T00:17:26;41.83;;;25.97;;
12314;SDS011;23886;46.614;14.276;2023-02-19T00:19:55;38.87;;;25.13;;
12314;SDS011;23886;46.614;14.276;2023-02-19T00:22:21;36.37;;;24.97;;
12314;SDS011;23886;46.614;14.276;2023-02-19T00:24:48;38.17;;;24.80;;
12314;SDS011;23886;46.614;14.276;2023-02-19T00:27:15;37.63;;;25.27;;
12314;SDS011;23886;46.614;14.276;2023-02-19T00:29:42;36.80;;;24.77;;
12314;SDS011;23886;46.614;14.276;2023-02-19T00:32:09;32.97;;;24.33;;
12314;SDS011;23886;46.614;14.276;2023-02-19T00:34:36;33.90;;;24.03;;
12314;SDS011;23886;46.614;14.276;2023-02-19T00:37:05;36.93;;;23.73;;
12314;SDS011;23886;46.614;14.276;2023-02-19T00:39:32;32.60;;;22.27;;
12314;SDS011;23886;46.614;14.276;2023-02-19T00:41:58;29.90;;;21.77;;
12314;SDS011;23886;46.614;14.276;2023-02-19T00:44:26;29.63;;;20.87;;
12314;SDS011;23886;46.614;14.276;2023-02-19T00:46:53;30.33;;;21.17;;
12314;SDS011;23886;46.614;14.276;2023-02-19T00:49:20;31.37;;;21.13;;
12314;SDS011;23886;46.614;14.276;2023-02-19T00:51:48;32.10;;;22.57;;
12314;SDS011;23886;46.614;14.276;2023-02-19T00:54:18;30.07;;;22.63;;
12314;SDS011;23886;46.614;14.276;2023-02-19T00:56:46;29.43;;;21.13;;
12314;SDS011;23886;46.614;14.276;2023-02-19T00:59:13;33.57;;;21.90;;
12314;SDS011;23886;46.614;14.276;2023-02-19T01:01:41;31.87;;;22.10;;
12314;SDS011;23886;46.614;14.276;2023-02-19T01:04:09;28.90;;;22.10;;
12314;SDS011;23886;46.614;14.276;2023-02-19T01:06:36;29.03;;;20.57;;
12314;SDS011;23886;46.614;14.276;2023-02-19T01:09:04;28.97;;;20.70;;
12314;SDS011;23886;46.614;14.276;2023-02-19T01:11:33;27.57;;;19.70;;
12314;SDS011;23886;46.614;14.276;2023-02-19T01:14:00;27.97;;;20.87;;
12314;SDS011;23886;46.614;14.276;2023-02-19T01:16:27;27.17;;;19.97;;
12314;SDS011;23886;46.614;14.276;2023-02-19T01:18:55;28.50;;;19.93;;
12314;SDS011;23886;46.614;14.276;2023-02-19T01:21:24;30.53;;;20.27;;
12314;SDS011;23886;46.614;14.276;2023-02-19T01:23:53;29.40;;;20.10;;
12314;SDS011;23886;46.614;14.276;2023-02-19T01:26:21;25.23;;;19.63;;
12314;SDS011;23886;46.614;14.276;2023-02-19T01:28:51;26.80;;;20.27;;
12314;SDS011;23886;46.614;14.276;2023-02-19T01:31:19;27.33;;;19.77;;
12314;SDS011;23886;46.614;14.276;2023-02-19T01:33:47;27.53;;;19.70;;
12314;SDS011;23886;46.614;14.276;2023-02-19T01:36:15;32.57;;;21.37;;
12314;SDS011;23886;46.614;14.276;2023-02-19T01:38:42;29.30;;;20.13;;
12314;SDS011;23886;46.614;14.276;2023-02-19T01:41:11;25.43;;;19.67;;
12314;SDS011;23886;46.614;14.276;2023-02-19T01:43:55;27.23;;;19.87;;
12314;SDS011;23886;46.614;14.276;2023-02-19T01:46:25;26.03;;;19.90;;
12314;SDS011;23886;46.614;14.276;2023-02-19T01:48:53;28.27;;;19.80;;
12314;SDS011;23886;46.614;14.276;2023-02-19T01:51:22;29.47;;;19.73;;
12314;SDS011;23886;46.614;14.276;2023-02-19T01:53:49;26.87;;;19.70;;
12314;SDS011;23886;46.614;14.276;2023-02-19T01:56:20;27.27;;;19.63;;
12314;SDS011;23886;46.614;14.276;2023-02-19T01:58:50;29.27;;;19.73;;
12314;SDS011;23886;46.614;14.276;2023-02-19T02:01:19;25.03;;;17.90;;
12314;SDS011;23886;46.614;14.276;2023-02-19T02:03:46;25.30;;;18.17;;
12314;SDS011;23886;46.614;14.276;2023-02-19T02:06:15;31.30;;;20.40;;
12314;SDS011;23886;46.614;14.276;2023-02-19T02:08:47;28.17;;;24.00;;
12314;SDS011;23886;46.614;14.276;2023-02-19T02:11:34;28.83;;;21.47;;
12314;SDS011;23886;46.614;14.276;2023-02-19T02:14:01;28.20;;;19.73;;
12314;SDS011;23886;46.614;14.276;2023-02-19T02:16:32;30.23;;;21.37;;
12314;SDS011;23886;46.614;14.276;2023-02-19T02:19:08;27.13;;;19.93;;
12314;SDS011;23886;46.614;14.276;2023-02-19T02:21:52;28.50;;;21.03;;
12314;SDS011;23886;46.614;14.276;2023-02-19T02:24:49;29.00;;;20.67;;
12314;SDS011;23886;46.614;14.276;2023-02-19T02:27:38;32.00;;;21.60;;
12314;SDS011;23886;46.614;14.276;2023-02-19T02:30:17;31.33;;;20.83;;
12314;SDS011;23886;46.614;14.276;2023-02-19T02:32:55;27.80;;;19.83;;
12314;SDS011;23886;46.614;14.276;2023-02-19T02:35:27;28.40;;;20.33;;
12314;SDS011;23886;46.614;14.276;2023-02-19T02:37:58;28.83;;;19.57;;
12314;SDS011;23886;46.614;14.276;2023-02-19T02:40:28;27.27;;;20.07;;
12314;SDS011;23886;46.614;14.276;2023-02-19T02:42:56;29.57;;;19.20;;
12314;SDS011;23886;46.614;14.276;2023-02-19T02:45:27;25.23;;;18.60;;
12314;SDS011;23886;46.614;14.276;2023-02-19T02:50:50;24.97;;;17.90;;
12314;SDS011;23886;46.614;14.276;2023-02-19T02:53:21;31.67;;;19.17;;
12314;SDS011;23886;46.614;14.276;2023-02-19T02:56:11;26.47;;;19.20;;
12314;SDS011;23886;46.614;14.276;2023-02-19T02:58:40;28.23;;;19.73;;
12314;SDS011;23886;46.614;14.276;2023-02-19T03:01:10;23.90;;;17.97;;
12314;SDS011;23886;46.614;14.276;2023-02-19T03:04:03;28.37;;;20.23;;
12314;SDS011;23886;46.614;14.276;2023-02-19T03:06:34;27.30;;;19.53;;
12314;SDS011;23886;46.614;14.276;2023-02-19T03:09:05;26.93;;;19.67;;
12314;SDS011;23886;46.614;14.276;2023-02-19T03:11:35;25.57;;;18.70;;
12314;SDS011;23886;46.614;14.276;2023-02-19T03:14:25;28.63;;;20.20;;
12314;SDS011;23886;46.614;14.276;2023-02-19T03:17:17;27.47;;;18.97;;
12314;SDS011;23886;46.614;14.276;2023-02-19T03:20:06;27.93;;;18.90;;
12314;SDS011;23886;46.614;14.276;2023-02-19T03:22:36;25.27;;;18.40;;
12314;SDS011;23886;46.614;14.276;2023-02-19T03:25:06;23.17;;;17.77;;
12314;SDS011;23886;46.614;14.276;2023-02-19T03:27:54;27.03;;;19.50;;
12314;SDS011;23886;46.614;14.276;2023-02-19T03:30:27;27.73;;;19.33;;
12314;SDS011;23886;46.614;14.276;2023-02-19T03:32:58;27.03;;;18.57;;
12314;SDS011;23886;46.614;14.276;2023-02-19T03:35:32;28.27;;;19.27;;
12314;SDS011;23886;46.614;14.276;2023-02-19T03:38:03;27.42;;;23.85;;
12314;SDS011;23886;46.614;14.276;2023-02-19T03:40:37;29.10;;;20.80;;
12314;SDS011;23886;46.614;14.276;2023-02-19T03:43:10;27.43;;;19.73;;
12314;SDS011;23886;46.614;14.276;2023-02-19T03:45:44;24.33;;;17.93;;
12314;SDS011;23886;46.614;14.276;2023-02-19T03:48:19;25.80;;;18.33;;
12314;SDS011;23886;46.614;14.276;2023-02-19T03:50:55;26.00;;;17.73;;
12314;SDS011;23886;46.614;14.276;2023-02-19T03:53:31;29.20;;;19.80;;
12314;SDS011;23886;46.614;14.276;2023-02-19T03:56:03;28.33;;;18.27;;
12314;SDS011;23886;46.614;14.276;2023-02-19T03:58:36;25.23;;;18.20;;
12314;SDS011;23886;46.614;14.276;2023-02-19T04:01:07;25.50;;;18.90;;
12314;SDS011;23886;46.614;14.276;2023-02-19T04:03:42;26.60;;;18.80;;
12314;SDS011;23886;46.614;14.276;2023-02-19T04:06:15;27.83;;;18.57;;
12314;SDS011;23886;46.614;14.276;2023-02-19T04:08:47;27.10;;;18.77;;
12314;SDS011;23886;46.614;14.276;2023-02-19T04:11:17;25.30;;;18.43;;
12314;SDS011;23886;46.614;14.276;2023-02-19T04:13:48;24.97;;;18.27;;
12314;SDS011;23886;46.614;14.276;2023-02-19T04:16:20;24.67;;;17.30;;
12314;SDS011;23886;46.614;14.276;2023-02-19T04:18:53;25.73;;;18.33;;
12314;SDS011;23886;46.614;14.276;2023-02-19T04:21:23;24.53;;;17.87;;
12314;SDS011;23886;46.614;14.276;2023-02-19T04:23:51;25.93;;;17.77;;
12314;SDS011;23886;46.614;14.276;2023-02-19T04:26:19;25.20;;;18.03;;
12314;SDS011;23886;46.614;14.276;2023-02-19T04:28:47;27.37;;;18.23;;
12314;SDS011;23886;46.614;14.276;2023-02-19T04:31:15;27.50;;;18.90;;
12314;SDS011;23886;46.614;14.276;2023-02-19T04:33:42;25.27;;;18.80;;
12314;SDS011;23886;46.614;14.276;2023-02-19T04:36:10;28.43;;;20.00;;
12314;SDS011;23886;46.614;14.276;2023-02-19T04:38:37;27.60;;;19.80;;
12314;SDS011;23886;46.614;14.276;2023-02-19T04:41:04;26.03;;;19.47;;
12314;SDS011;23886;46.614;14.276;2023-02-19T04:43:31;27.37;;;18.40;;
12314;SDS011;23886;46.614;14.276;2023-02-19T04:45:58;26.70;;;18.93;;
12314;SDS011;23886;46.614;14.276;2023-02-19T04:48:26;26.73;;;19.33;;
12314;SDS011;23886;46.614;14.276;2023-02-19T04:50:54;25.70;;;18.77;;
12314;SDS011;23886;46.614;14.276;2023-02-19T04:53:22;26.87;;;18.90;;
12314;SDS011;23886;46.614;14.276;2023-02-19T04:55:49;26.63;;;18.93;;
12314;SDS011;23886;46.614;14.276;2023-02-19T04:58:17;28.03;;;19.73;;
12314;SDS011;23886;46.614;14.276;2023-02-19T05:00:45;25.40;;;18.60;;
12314;SDS011;23886;46.614;14.276;2023-02-19T05:03:16;23.93;;;18.40;;
12314;SDS011;23886;46.614;14.276;2023-02-19T05:05:43;27.73;;;20.43;;
12314;SDS011;23886;46.614;14.276;2023-02-19T05:08:10;26.33;;;19.03;;
12314;SDS011;23886;46.614;14.276;2023-02-19T05:10:38;26.37;;;19.10;;
12314;SDS011;23886;46.614;14.276;2023-02-19T05:13:05;26.47;;;18.60;;
12314;SDS011;23886;46.614;14.276;2023-02-19T05:15:32;26.17;;;19.50;;
12314;SDS011;23886;46.614;14.276;2023-02-19T05:17:59;27.33;;;18.90;;
12314;SDS011;23886;46.614;14.276;2023-02-19T05:20:26;27.53;;;19.30;;
12314;SDS011;23886;46.614;14.276;2023-02-19T05:22:53;27.37;;;19.17;;
12314;SDS011;23886;46.614;14.276;2023-02-19T05:25:20;30.07;;;19.90;;
12314;SDS011;23886;46.614;14.276;2023-02-19T05:27:49;26.93;;;18.67;;
12314;SDS011;23886;46.614;14.276;2023-02-19T05:30:36;26.10;;;18.67;;
12314;SDS011;23886;46.614;14.276;2023-02-19T05:33:03;26.30;;;18.40;;
12314;SDS011;23886;46.614;14.276;2023-02-19T05:35:30;25.03;;;17.93;;
12314;SDS011;23886;46.614;14.276;2023-02-19T05:37:57;33.37;;;23.73;;
12314;SDS011;23886;46.614;14.276;2023-02-19T05:40:24;37.37;;;25.23;;
12314;SDS011;23886;46.614;14.276;2023-02-19T05:42:52;33.13;;;23.07;;
12314;SDS011;23886;46.614;14.276;2023-02-19T05:45:19;33.33;;;23.30;;
12314;SDS011;23886;46.614;14.276;2023-02-19T05:47:46;34.47;;;24.83;;
12314;SDS011;23886;46.614;14.276;2023-02-19T05:50:13;32.10;;;22.33;;
12314;SDS011;23886;46.614;14.276;2023-02-19T05:52:40;33.70;;;22.50;;
12314;SDS011;23886;46.614;14.276;2023-02-19T05:55:08;30.17;;;21.47;;
12314;SDS011;23886;46.614;14.276;2023-02-19T05:57:38;32.97;;;21.37;;
12314;SDS011;23886;46.614;14.276;2023-02-19T06:00:08;25.77;;;18.90;;
12314;SDS011;23886;46.614;14.276;2023-02-19T06:02:37;34.43;;;21.47;;
12314;SDS011;23886;46.614;14.276;2023-02-19T06:05:04;30.23;;;20.90;;
12314;SDS011;23886;46.614;14.276;2023-02-19T06:07:32;35.10;;;25.13;;
12314;SDS011;23886;46.614;14.276;2023-02-19T06:10:00;35.60;;;25.30;;
12314;SDS011;23886;46.614;14.276;2023-02-19T06:12:27;35.20;;;23.87;;
12314;SDS011;23886;46.614;14.276;2023-02-19T06:14:54;33.63;;;23.47;;
12314;SDS011;23886;46.614;14.276;2023-02-19T06:17:22;32.10;;;21.00;;
12314;SDS011;23886;46.614;14.276;2023-02-19T06:19:49;65.17;;;40.97;;
12314;SDS011;23886;46.614;14.276;2023-02-19T06:22:16;40.80;;;26.40;;
12314;SDS011;23886;46.614;14.276;2023-02-19T06:24:43;34.13;;;24.47;;
12314;SDS011;23886;46.614;14.276;2023-02-19T06:27:10;46.70;;;31.13;;
12314;SDS011;23886;46.614;14.276;2023-02-19T06:29:37;37.97;;;26.57;;
12314;SDS011;23886;46.614;14.276;2023-02-19T06:32:04;42.23;;;28.27;;
12314;SDS011;23886;46.614;14.276;2023-02-19T06:34:33;35.97;;;25.73;;
12314;SDS011;23886;46.614;14.276;2023-02-19T06:37:00;39.57;;;28.53;;
12314;SDS011;23886;46.614;14.276;2023-02-19T06:39:27;40.43;;;28.53;;
12314;SDS011;23886;46.614;14.276;2023-02-19T06:41:55;40.87;;;29.53;;
12314;SDS011;23886;46.614;14.276;2023-02-19T06:44:22;37.63;;;27.43;;
12314;SDS011;23886;46.614;14.276;2023-02-19T06:46:49;33.10;;;24.87;;
12314;SDS011;23886;46.614;14.276;2023-02-19T06:49:16;31.80;;;23.40;;
12314;SDS011;23886;46.614;14.276;2023-02-19T06:51:45;27.93;;;22.67;;
12314;SDS011;23886;46.614;14.276;2023-02-19T06:54:12;31.33;;;22.33;;
12314;SDS011;23886;46.614;14.276;2023-02-19T06:56:39;30.53;;;22.40;;
12314;SDS011;23886;46.614;14.276;2023-02-19T06:59:07;27.60;;;19.97;;
12314;SDS011;23886;46.614;14.276;2023-02-19T07:01:37;25.10;;;20.00;;
12314;SDS011;23886;46.614;14.276;2023-02-19T07:04:04;26.27;;;19.87;;
12314;SDS011;23886;46.614;14.276;2023-02-19T07:06:33;28.37;;;20.47;;
12314;SDS011;23886;46.614;14.276;2023-02-19T07:09:02;25.83;;;20.87;;
12314;SDS011;23886;46.614;14.276;2023-02-19T07:11:31;25.17;;;19.87;;
12314;SDS011;23886;46.614;14.276;2023-02-19T07:13:59;25.57;;;20.73;;
12314;SDS011;23886;46.614;14.276;2023-02-19T07:16:28;25.57;;;19.90;;
12314;SDS011;23886;46.614;14.276;2023-02-19T07:18:56;24.53;;;20.60;;
12314;SDS011;23886;46.614;14.276;2023-02-19T07:21:23;25.03;;;19.73;;
12314;SDS011;23886;46.614;14.276;2023-02-19T07:23:50;22.57;;;19.17;;
12314;SDS011;23886;46.614;14.276;2023-02-19T07:26:19;22.83;;;19.07;;
12314;SDS011;23886;46.614;14.276;2023-02-19T07:28:47;22.80;;;19.23;;
12314;SDS011;23886;46.614;14.276;2023-02-19T07:31:16;23.60;;;19.50;;
12314;SDS011;23886;46.614;14.276;2023-02-19T07:33:45;23.00;;;19.43;;
12314;SDS011;23886;46.614;14.276;2023-02-19T07:36:12;22.83;;;18.63;;
12314;SDS011;23886;46.614;14.276;2023-02-19T07:38:40;20.97;;;17.30;;
12314;SDS011;23886;46.614;14.276;2023-02-19T07:41:08;21.60;;;18.30;;
12314;SDS011;23886;46.614;14.276;2023-02-19T07:43:36;26.77;;;20.50;;
12314;SDS011;23886;46.614;14.276;2023-02-19T07:46:04;29.07;;;20.57;;
12314;SDS011;23886;46.614;14.276;2023-02-19T07:48:33;31.93;;;24.20;;
12314;SDS011;23886;46.614;14.276;2023-02-19T07:51:03;23.33;;;19.37;;
12314;SDS011;23886;46.614;14.276;2023-02-19T07:53:32;21.60;;;17.07;;
12314;SDS011;23886;46.614;14.276;2023-02-19T07:55:59;21.87;;;17.33;;
12314;SDS011;23886;46.614;14.276;2023-02-19T07:58:27;21.73;;;17.67;;
12314;SDS011;23886;46.614;14.276;2023-02-19T08:00:56;20.20;;;16.53;;
12314;SDS011;23886;46.614;14.276;2023-02-19T08:03:23;21.43;;;17.87;;
12314;SDS011;23886;46.614;14.276;2023-02-19T08:05:49;25.47;;;18.63;;
12314;SDS011;23886;46.614;14.276;2023-02-19T08:08:17;24.67;;;18.57;;
12314;SDS011;23886;46.614;14.276;2023-02-19T08:10:44;23.73;;;19.23;;
12314;SDS011;23886;46.614;14.276;2023-02-19T08:13:29;24.73;;;19.53;;
12314;SDS011;23886;46.614;14.276;2023-02-19T08:16:07;24.67;;;18.97;;
12314;SDS011;23886;46.614;14.276;2023-02-19T08:18:36;29.93;;;19.97;;
12314;SDS011;23886;46.614;14.276;2023-02-19T08:21:03;24.20;;;18.97;;
12314;SDS011;23886;46.614;14.276;2023-02-19T08:23:30;25.27;;;22.60;;
12314;SDS011;23886;46.614;14.276;2023-02-19T08:25:57;24.13;;;19.40;;
12314;SDS011;23886;46.614;14.276;2023-02-19T08:28:26;20.20;;;17.03;;
12314;SDS011;23886;46.614;14.276;2023-02-19T08:30:56;21.93;;;15.83;;
12314;SDS011;23886;46.614;14.276;2023-02-19T08:33:27;37.00;;;27.37;;
12314;SDS011;23886;46.614;14.276;2023-02-19T08:35:55;38.43;;;29.13;;
12314;SDS011;23886;46.614;14.276;2023-02-19T08:38:22;31.10;;;24.17;;
12314;SDS011;23886;46.614;14.276;2023-02-19T08:40:49;26.80;;;19.53;;
12314;SDS011;23886;46.614;14.276;2023-02-19T08:43:16;21.23;;;15.30;;
12314;SDS011;23886;46.614;14.276;2023-02-19T08:45:43;22.00;;;17.33;;
12314;SDS011;23886;46.614;14.276;2023-02-19T08:48:13;20.43;;;15.57;;
12314;SDS011;23886;46.614;14.276;2023-02-19T08:50:40;18.00;;;15.23;;
12314;SDS011;23886;46.614;14.276;2023-02-19T08:53:07;19.33;;;15.73;;
12314;SDS011;23886;46.614;14.276;2023-02-19T08:55:35;17.87;;;15.77;;
12314;SDS011;23886;46.614;14.276;2023-02-19T08:58:03;19.10;;;15.90;;
12314;SDS011;23886;46.614;14.276;2023-02-19T09:00:30;19.10;;;16.10;;
12314;SDS011;23886;46.614;14.276;2023-02-19T09:02:57;18.63;;;15.53;;
12314;SDS011;23886;46.614;14.276;2023-02-19T09:05:26;18.97;;;15.60;;
12314;SDS011;23886;46.614;14.276;2023-02-19T09:07:53;18.60;;;15.10;;
12314;SDS011;23886;46.614;14.276;2023-02-19T09:10:20;16.83;;;14.60;;
12314;SDS011;23886;46.614;14.276;2023-02-19T09:12:47;18.93;;;15.63;;
12314;SDS011;23886;46.614;14.276;2023-02-19T09:15:14;21.17;;;16.53;;
12314;SDS011;23886;46.614;14.276;2023-02-19T09:17:41;22.97;;;18.33;;
12314;SDS011;23886;46.614;14.276;2023-02-19T09:20:09;22.97;;;18.07;;
12314;SDS011;23886;46.614;14.276;2023-02-19T09:22:37;22.53;;;18.87;;
12314;SDS011;23886;46.614;14.276;2023-02-19T09:25:04;25.90;;;19.43;;
12314;SDS011;23886;46.614;14.276;2023-02-19T09:27:31;22.80;;;18.80;;
12314;SDS011;23886;46.614;14.276;2023-02-19T09:29:58;23.30;;;17.90;;
12314;SDS011;23886;46.614;14.276;2023-02-19T09:32:25;23.80;;;17.97;;
12314;SDS011;23886;46.614;14.276;2023-02-19T09:34:55;21.83;;;18.37;;
12314;SDS011;23886;46.614;14.276;2023-02-19T09:37:23;23.63;;;16.23;;
12314;SDS011;23886;46.614;14.276;2023-02-19T09:39:52;19.07;;;15.53;;
12314;SDS011;23886;46.614;14.276;2023-02-19T09:42:21;16.97;;;15.00;;
12314;SDS011;23886;46.614;14.276;2023-02-19T09:44:51;19.17;;;15.07;;
12314;SDS011;23886;46.614;14.276;2023-02-19T09:47:20;21.00;;;16.70;;
12314;SDS011;23886;46.614;14.276;2023-02-19T09:49:50;18.87;;;14.53;;
12314;SDS011;23886;46.614;14.276;2023-02-19T09:52:23;19.93;;;15.53;;
12314;SDS011;23886;46.614;14.276;2023-02-19T09:54:58;20.13;;;13.97;;
12314;SDS011;23886;46.614;14.276;2023-02-19T09:57:29;21.33;;;15.47;;
12314;SDS011;23886;46.614;14.276;2023-02-19T09:59:59;18.63;;;14.77;;
12314;SDS011;23886;46.614;14.276;2023-02-19T10:02:30;22.43;;;14.70;;
12314;SDS011;23886;46.614;14.276;2023-02-19T10:04:58;18.13;;;13.90;;
12314;SDS011;23886;46.614;14.276;2023-02-19T10:07:27;19.57;;;14.87;;
12314;SDS011;23886;46.614;14.276;2023-02-19T10:10:09;23.00;;;16.00;;
12314;SDS011;23886;46.614;14.276;2023-02-19T10:12:49;18.50;;;13.63;;
12314;SDS011;23886;46.614;14.276;2023-02-19T10:15:18;17.07;;;13.83;;
12314;SDS011;23886;46.614;14.276;2023-02-19T10:17:49;17.50;;;14.20;;
12314;SDS011;23886;46.614;14.276;2023-02-19T10:20:16;16.57;;;13.70;;
12314;SDS011;23886;46.614;14.276;2023-02-19T10:22:48;19.83;;;14.33;;
12314;SDS011;23886;46.614;14.276;2023-02-19T10:25:20;18.13;;;14.33;;
12314;SDS011;23886;46.614;14.276;2023-02-19T10:27:47;17.90;;;14.23;;
12314;SDS011;23886;46.614;14.276;2023-02-19T10:30:16;18.53;;;13.37;;
12314;SDS011;23886;46.614;14.276;2023-02-19T10:32:56;17.90;;;12.63;;
12314;SDS011;23886;46.614;14.276;2023-02-19T10:35:25;16.47;;;12.97;;
12314;SDS011;23886;46.614;14.276;2023-02-19T10:37:52;16.73;;;13.13;;
12314;SDS011;23886;46.614;14.276;2023-02-19T10:40:21;16.67;;;12.80;;
12314;SDS011;23886;46.614;14.276;2023-02-19T10:42:51;16.40;;;12.53;;
12314;SDS011;23886;46.614;14.276;2023-02-19T10:45:22;16.00;;;12.10;;
12314;SDS011;23886;46.614;14.276;2023-02-19T10:47:51;17.13;;;12.43;;
12314;SDS011;23886;46.614;14.276;2023-02-19T10:50:23;16.50;;;12.73;;
12314;SDS011;23886;46.614;14.276;2023-02-19T10:52:53;16.73;;;11.93;;
12314;SDS011;23886;46.614;14.276;2023-02-19T10:55:30;14.97;;;12.03;;
12314;SDS011;23886;46.614;14.276;2023-02-19T10:58:15;17.23;;;12.77;;
12314;SDS011;23886;46.614;14.276;2023-02-19T11:00:51;15.53;;;12.70;;
12314;SDS011;23886;46.614;14.276;2023-02-19T11:03:36;16.63;;;12.40;;
12314;SDS011;23886;46.614;14.276;2023-02-19T11:06:04;18.93;;;13.63;;
12314;SDS011;23886;46.614;14.276;2023-02-19T11:08:38;19.10;;;14.30;;
12314;SDS011;23886;46.614;14.276;2023-02-19T11:11:21;16.07;;;13.73;;
12314;SDS011;23886;46.614;14.276;2023-02-19T11:13:51;16.90;;;13.47;;
12314;SDS011;23886;46.614;14.276;2023-02-19T11:16:20;17.17;;;13.57;;
12314;SDS011;23886;46.614;14.276;2023-02-19T11:18:51;17.80;;;13.10;;
12314;SDS011;23886;46.614;14.276;2023-02-19T11:21:23;13.57;;;12.07;;
12314;SDS011;23886;46.614;14.276;2023-02-19T11:23:57;16.07;;;12.97;;
12314;SDS011;23886;46.614;14.276;2023-02-19T11:26:26;15.43;;;12.67;;
12314;SDS011;23886;46.614;14.276;2023-02-19T11:28:59;15.43;;;12.10;;
12314;SDS011;23886;46.614;14.276;2023-02-19T11:31:27;19.27;;;13.30;;
12314;SDS011;23886;46.614;14.276;2023-02-19T11:33:56;16.93;;;12.33;;
12314;SDS011;23886;46.614;14.276;2023-02-19T11:36:25;21.17;;;12.97;;
12314;SDS011;23886;46.614;14.276;2023-02-19T11:38:58;15.53;;;12.77;;
12314;SDS011;23886;46.614;14.276;2023-02-19T11:41:44;14.27;;;11.87;;
12314;SDS011;23886;46.614;14.276;2023-02-19T11:44:33;19.70;;;12.80;;
12314;SDS011;23886;46.614;14.276;2023-02-19T11:50:08;14.73;;;11.33;;
12314;SDS011;23886;46.614;14.276;2023-02-19T11:52:46;22.20;;;12.40;;
12314;SDS011;23886;46.614;14.276;2023-02-19T11:55:24;15.03;;;12.90;;
12314;SDS011;23886;46.614;14.276;2023-02-19T11:58:10;21.97;;;14.27;;
12314;SDS011;23886;46.614;14.276;2023-02-19T12:00:52;15.80;;;13.40;;
12314;SDS011;23886;46.614;14.276;2023-02-19T12:03:28;14.80;;;11.63;;
12314;SDS011;23886;46.614;14.276;2023-02-19T12:06:09;14.13;;;11.87;;
12314;SDS011;23886;46.614;14.276;2023-02-19T12:14:50;13.83;;;11.60;;
12314;SDS011;23886;46.614;14.276;2023-02-19T12:17:45;14.40;;;12.37;;
12314;SDS011;23886;46.614;14.276;2023-02-19T12:20:25;13.50;;;11.33;;
12314;SDS011;23886;46.614;14.276;2023-02-19T12:23:06;12.70;;;11.00;;
12314;SDS011;23886;46.614;14.276;2023-02-19T12:26:02;12.37;;;10.33;;
12314;SDS011;23886;46.614;14.276;2023-02-19T12:28:42;13.67;;;10.93;;
12314;SDS011;23886;46.614;14.276;2023-02-19T12:31:26;11.70;;;10.13;;
12314;SDS011;23886;46.614;14.276;2023-02-19T12:37:03;12.57;;;10.53;;
12314;SDS011;23886;46.614;14.276;2023-02-19T12:39:46;12.37;;;11.07;;
12314;SDS011;23886;46.614;14.276;2023-02-19T12:42:29;13.53;;;10.53;;
12314;SDS011;23886;46.614;14.276;2023-02-19T12:45:05;13.60;;;10.40;;
12314;SDS011;23886;46.614;14.276;2023-02-19T12:47:53;12.20;;;9.63;;
12314;SDS011;23886;46.614;14.276;2023-02-19T12:50:25;11.60;;;10.07;;
12314;SDS011;23886;46.614;14.276;2023-02-19T12:52:54;11.20;;;9.60;;
12314;SDS011;23886;46.614;14.276;2023-02-19T12:55:25;11.77;;;9.40;;
12314;SDS011;23886;46.614;14.276;2023-02-19T12:57:55;14.20;;;11.90;;
12314;SDS011;23886;46.614;14.276;2023-02-19T13:00:28;15.67;;;11.83;;
12314;SDS011;23886;46.614;14.276;2023-02-19T13:03:04;15.40;;;12.07;;
12314;SDS011;23886;46.614;14.276;2023-02-19T13:05:39;16.47;;;12.07;;
12314;SDS011;23886;46.614;14.276;2023-02-19T13:08:11;14.40;;;12.00;;
12314;SDS011;23886;46.614;14.276;2023-02-19T13:10:45;15.23;;;10.97;;
12314;SDS011;23886;46.614;14.276;2023-02-19T13:13:18;14.80;;;12.83;;
12314;SDS011;23886;46.614;14.276;2023-02-19T13:15:49;15.30;;;13.00;;
12314;SDS011;23886;46.614;14.276;2023-02-19T13:18:21;16.97;;;13.50;;
12314;SDS011;23886;46.614;14.276;2023-02-19T13:20:53;17.00;;;13.80;;
12314;SDS011;23886;46.614;14.276;2023-02-19T13:23:21;16.17;;;13.27;;
12314;SDS011;23886;46.614;14.276;2023-02-19T13:26:17;15.43;;;12.10;;
12314;SDS011;23886;46.614;14.276;2023-02-19T13:29:11;14.50;;;12.40;;
12314;SDS011;23886;46.614;14.276;2023-02-19T13:31:51;16.57;;;13.73;;
12314;SDS011;23886;46.614;14.276;2023-02-19T13:34:37;16.87;;;12.83;;
12314;SDS011;23886;46.614;14.276;2023-02-19T13:37:15;14.97;;;13.20;;
12314;SDS011;23886;46.614;14.276;2023-02-19T13:39:46;15.90;;;14.10;;
12314;SDS011;23886;46.614;14.276;2023-02-19T13:42:22;15.20;;;13.03;;
12314;SDS011;23886;46.614;14.276;2023-02-19T13:44:51;18.20;;;13.73;;
12314;SDS011;23886;46.614;14.276;2023-02-19T13:50:17;16.10;;;12.67;;
12314;SDS011;23886;46.614;14.276;2023-02-19T13:52:47;14.27;;;12.70;;
12314;SDS011;23886;46.614;14.276;2023-02-19T13:58:36;14.27;;;12.00;;
12314;SDS011;23886;46.614;14.276;2023-02-19T14:04:44;12.70;;;11.20;;
12314;SDS011;23886;46.614;14.276;2023-02-19T14:25:43;12.40;;;10.50;;
12314;SDS011;23886;46.614;14.276;2023-02-19T14:28:16;11.67;;;10.47;;
12314;SDS011;23886;46.614;14.276;2023-02-19T14:31:01;12.90;;;10.03;;
12314;SDS011;23886;46.614;14.276;2023-02-19T14:33:35;10.90;;;9.77;;
12314;SDS011;23886;46.614;14.276;2023-02-19T14:36:08;11.77;;;9.33;;
12314;SDS011;23886;46.614;14.276;2023-02-19T14:38:44;10.53;;;9.50;;
12314;SDS011;23886;46.614;14.276;2023-02-19T14:41:14;10.03;;;9.03;;
12314;SDS011;23886;46.614;14.276;2023-02-19T14:43:42;9.67;;;8.77;;
12314;SDS011;23886;46.614;14.276;2023-02-19T14:46:13;11.60;;;10.40;;
12314;SDS011;23886;46.614;14.276;2023-02-19T14:48:43;12.07;;;10.83;;
12314;SDS011;23886;46.614;14.276;2023-02-19T14:51:14;11.67;;;10.47;;
12314;SDS011;23886;46.614;14.276;2023-02-19T14:53:51;11.27;;;9.97;;
12314;SDS011;23886;46.614;14.276;2023-02-19T14:56:19;11.37;;;10.17;;
12314;SDS011;23886;46.614;14.276;2023-02-19T14:59:20;12.03;;;10.53;;
12314;SDS011;23886;46.614;14.276;2023-02-19T15:01:57;13.20;;;10.47;;
12314;SDS011;23886;46.614;14.276;2023-02-19T15:04:26;11.70;;;10.37;;
12314;SDS011;23886;46.614;14.276;2023-02-19T15:06:55;11.63;;;9.90;;
12314;SDS011;23886;46.614;14.276;2023-02-19T15:09:29;10.27;;;9.07;;
12314;SDS011;23886;46.614;14.276;2023-02-19T15:11:58;10.90;;;9.77;;
12314;SDS011;23886;46.614;14.276;2023-02-19T15:14:27;10.97;;;9.73;;